Time;durP1;ratioP1;P1;durP2;ratioP2;P2;SDS_P1;SDS_P2;PMS_P1;PMS_P2;Temp;Humidity;BMP_temperature;BMP_pressure;BME280_temperature;BME280_humidity;BME280_pressure;Samples;Min_cycle;Max_cycle;Signal;HPM_P1;HPM_P2
2022/03/08 00:00:13;;;;;;;21.83;8.23;;;;;;;;;;5007055;28;20837;-78
2022/03/08 00:02:41;;;;;;;24.87;8.77;;;;;;;;;;5010617;28;20565;-79
2022/03/08 00:05:09;;;;;;;20.50;8.23;;;;;;;;;;5010519;28;20463;-79
2022/03/08 00:07:36;;;;;;;22.13;8.77;;;;;;;;;;5007678;28;20482;-79
2022/03/08 00:10:04;;;;;;;22.40;8.57;;;;;;;;;;5003894;28;20543;-78
2022/03/08 00:12:31;;;;;;;22.77;8.80;;;;;;;;;;5004494;28;20483;-79
2022/03/08 00:14:58;;;;;;;19.37;8.23;;;;;;;;;;5007731;28;20468;-79
2022/03/08 00:17:25;;;;;;;23.60;8.87;;;;;;;;;;5007891;28;20829;-78
2022/03/08 00:19:54;;;;;;;20.03;9.03;;;;;;;;;;5006718;28;20495;-79
2022/03/08 00:22:21;;;;;;;23.97;8.50;;;;;;;;;;5002957;28;20514;-78
2022/03/08 00:24:49;;;;;;;20.87;7.87;;;;;;;;;;5003132;28;20542;-78
2022/03/08 00:27:16;;;;;;;19.93;7.77;;;;;;;;;;5000556;28;20987;-78
2022/03/08 00:29:43;;;;;;;26.60;8.67;;;;;;;;;;5002721;28;20497;-80
2022/03/08 00:32:14;;;;;;;25.10;8.50;;;;;;;;;;5000252;28;20463;-78
2022/03/08 00:34:47;;;;;;;24.43;8.33;;;;;;;;;;5011690;28;20578;-79
2022/03/08 00:37:16;;;;;;;18.70;8.33;;;;;;;;;;5010775;28;20467;-79
2022/03/08 00:39:43;;;;;;;23.40;8.17;;;;;;;;;;5015560;28;20455;-79
2022/03/08 00:42:11;;;;;;;22.00;8.70;;;;;;;;;;5009763;28;20478;-77
2022/03/08 00:44:39;;;;;;;19.53;8.80;;;;;;;;;;5018727;28;21024;-77
2022/03/08 00:47:13;;;;;;;25.27;9.30;;;;;;;;;;5019073;28;20460;-78
2022/03/08 00:49:41;;;;;;;22.37;8.10;;;;;;;;;;5020629;28;20455;-76
2022/03/08 00:52:09;;;;;;;22.40;8.80;;;;;;;;;;5016646;28;20455;-77
2022/03/08 00:54:38;;;;;;;28.07;9.40;;;;;;;;;;5006959;28;20488;-77
2022/03/08 00:57:05;;;;;;;22.63;8.47;;;;;;;;;;5008474;28;20459;-78
2022/03/08 00:59:32;;;;;;;27.30;9.23;;;;;;;;;;5008088;28;20668;-78
2022/03/08 01:02:00;;;;;;;20.63;8.67;;;;;;;;;;5009245;28;21022;-79
2022/03/08 01:04:27;;;;;;;25.37;9.33;;;;;;;;;;5006822;28;20467;-76
2022/03/08 01:06:55;;;;;;;22.27;9.17;;;;;;;;;;5008920;28;20542;-79
2022/03/08 01:09:22;;;;;;;23.63;8.37;;;;;;;;;;5018519;28;20455;-78
2022/03/08 01:11:54;;;;;;;21.93;9.13;;;;;;;;;;5015533;28;20542;-76
2022/03/08 01:14:21;;;;;;;25.00;9.17;;;;;;;;;;5012747;28;20498;-79
2022/03/08 01:16:48;;;;;;;21.00;8.70;;;;;;;;;;5016986;28;20455;-76
2022/03/08 01:19:15;;;;;;;25.20;9.60;;;;;;;;;;5015152;28;20642;-78
2022/03/08 01:21:42;;;;;;;18.67;8.23;;;;;;;;;;5015440;28;20452;-78
2022/03/08 01:24:10;;;;;;;19.37;8.60;;;;;;;;;;5015676;28;20478;-78
2022/03/08 01:26:37;;;;;;;23.83;9.13;;;;;;;;;;5014165;28;20459;-78
2022/03/08 01:29:06;;;;;;;25.50;9.13;;;;;;;;;;5015336;28;20531;-77
2022/03/08 01:31:33;;;;;;;20.07;8.57;;;;;;;;;;5014020;28;20489;-78
2022/03/08 01:34:01;;;;;;;24.93;9.30;;;;;;;;;;5009545;28;20472;-78
2022/03/08 01:36:28;;;;;;;19.63;8.90;;;;;;;;;;5009919;28;20880;-77
2022/03/08 01:38:56;;;;;;;23.13;9.43;;;;;;;;;;5009629;28;20682;-78
2022/03/08 01:41:23;;;;;;;20.87;8.43;;;;;;;;;;5012488;28;20490;-77
2022/03/08 01:43:50;;;;;;;23.77;8.63;;;;;;;;;;5008806;28;20575;-77
2022/03/08 01:46:19;;;;;;;21.20;8.67;;;;;;;;;;5013119;28;20538;-78
2022/03/08 01:48:46;;;;;;;22.23;9.20;;;;;;;;;;5012623;28;20451;-76
2022/03/08 01:51:14;;;;;;;20.10;8.43;;;;;;;;;;5011517;28;20952;-78
2022/03/08 01:53:41;;;;;;;19.73;8.10;;;;;;;;;;5014397;28;20476;-78
2022/03/08 01:56:09;;;;;;;22.63;8.80;;;;;;;;;;5014113;28;20466;-76
2022/03/08 01:58:36;;;;;;;21.37;9.37;;;;;;;;;;5012753;28;20940;-77
2022/03/08 02:01:03;;;;;;;21.73;9.20;;;;;;;;;;5013496;28;20550;-77
2022/03/08 02:03:32;;;;;;;23.17;8.80;;;;;;;;;;5013118;28;20467;-79
2022/03/08 02:05:59;;;;;;;21.10;8.37;;;;;;;;;;5013290;28;20523;-76
2022/03/08 02:08:27;;;;;;;19.17;8.03;;;;;;;;;;5014642;28;20471;-78
2022/03/08 02:10:54;;;;;;;25.60;9.20;;;;;;;;;;5005997;28;20460;-78
2022/03/08 02:13:21;;;;;;;19.87;8.07;;;;;;;;;;5013392;28;20482;-76
2022/03/08 02:15:49;;;;;;;20.30;8.23;;;;;;;;;;5009364;28;20470;-78
2022/03/08 02:18:17;;;;;;;22.07;8.57;;;;;;;;;;5012287;28;20557;-79
2022/03/08 02:20:45;;;;;;;22.17;8.83;;;;;;;;;;5014604;28;20543;-78
2022/03/08 02:23:14;;;;;;;24.07;8.60;;;;;;;;;;5016399;28;20502;-79
2022/03/08 02:25:43;;;;;;;23.03;8.47;;;;;;;;;;5010025;28;20566;-79
2022/03/08 02:28:10;;;;;;;19.67;8.63;;;;;;;;;;5015327;28;20451;-78
2022/03/08 02:30:37;;;;;;;22.20;8.10;;;;;;;;;;5018015;28;20501;-78
2022/03/08 02:33:04;;;;;;;23.10;8.57;;;;;;;;;;5012117;28;20494;-79
2022/03/08 02:35:32;;;;;;;27.27;9.27;;;;;;;;;;5008434;28;20550;-78
2022/03/08 02:38:01;;;;;;;22.43;8.80;;;;;;;;;;5007179;28;20828;-79
2022/03/08 02:40:30;;;;;;;26.83;9.40;;;;;;;;;;5012797;28;20506;-79
2022/03/08 02:42:58;;;;;;;24.77;8.80;;;;;;;;;;5011786;28;20521;-79
2022/03/08 02:45:25;;;;;;;24.07;8.70;;;;;;;;;;5008840;28;20541;-77
2022/03/08 02:47:52;;;;;;;26.40;8.43;;;;;;;;;;5010689;28;20467;-76
2022/03/08 02:50:20;;;;;;;23.83;8.73;;;;;;;;;;5007025;28;21008;-77
2022/03/08 02:52:51;;;;;;;24.67;9.23;;;;;;;;;;5010333;28;20485;-79
2022/03/08 02:55:20;;;;;;;28.47;9.57;;;;;;;;;;5007161;28;20499;-78
2022/03/08 02:57:49;;;;;;;19.80;7.90;;;;;;;;;;5007421;28;20494;-77
2022/03/08 03:00:17;;;;;;;19.70;8.30;;;;;;;;;;5008895;28;20466;-78
2022/03/08 03:02:45;;;;;;;29.00;8.87;;;;;;;;;;5005665;28;20574;-79
2022/03/08 03:05:12;;;;;;;22.47;8.87;;;;;;;;;;5008580;28;20491;-78
2022/03/08 03:07:39;;;;;;;20.43;8.13;;;;;;;;;;5013012;28;20469;-77
2022/03/08 03:10:07;;;;;;;24.30;9.13;;;;;;;;;;5011226;28;20483;-79
2022/03/08 03:12:34;;;;;;;21.20;9.27;;;;;;;;;;5008584;28;20848;-79
2022/03/08 03:15:04;;;;;;;21.20;8.67;;;;;;;;;;5009956;28;20463;-78
2022/03/08 03:17:32;;;;;;;19.67;8.10;;;;;;;;;;5012424;28;20570;-78
2022/03/08 03:19:59;;;;;;;17.83;8.23;;;;;;;;;;5012651;28;20575;-79
2022/03/08 03:22:26;;;;;;;22.40;8.67;;;;;;;;;;5015166;28;20582;-77
2022/03/08 03:24:53;;;;;;;19.93;8.57;;;;;;;;;;5020540;28;20479;-78
2022/03/08 03:27:20;;;;;;;25.33;8.77;;;;;;;;;;5018778;28;20461;-77
2022/03/08 03:29:47;;;;;;;22.40;9.47;;;;;;;;;;5018498;28;20483;-77
2022/03/08 03:32:16;;;;;;;21.47;8.43;;;;;;;;;;5018309;28;20460;-78
2022/03/08 03:34:43;;;;;;;22.73;9.00;;;;;;;;;;5011462;28;20470;-78
2022/03/08 03:37:10;;;;;;;21.93;8.27;;;;;;;;;;5013547;28;20546;-78
2022/03/08 03:39:37;;;;;;;22.53;9.20;;;;;;;;;;5009741;28;20566;-79
2022/03/08 03:42:05;;;;;;;21.83;8.73;;;;;;;;;;5014133;28;20515;-78
2022/03/08 03:44:32;;;;;;;21.57;8.70;;;;;;;;;;5012812;28;20469;-77
2022/03/08 03:46:59;;;;;;;22.70;8.83;;;;;;;;;;5009379;28;20531;-78
2022/03/08 03:49:28;;;;;;;20.53;7.93;;;;;;;;;;5012166;28;20978;-77
2022/03/08 03:51:55;;;;;;;21.47;8.37;;;;;;;;;;5011929;28;20470;-78
2022/03/08 03:54:22;;;;;;;22.53;8.33;;;;;;;;;;5010315;28;20771;-77
2022/03/08 03:56:50;;;;;;;21.33;9.07;;;;;;;;;;5011207;28;20534;-78
2022/03/08 03:59:17;;;;;;;26.43;9.20;;;;;;;;;;5009102;28;20558;-78
2022/03/08 04:01:44;;;;;;;28.33;8.70;;;;;;;;;;5011772;28;20453;-78
2022/03/08 04:04:11;;;;;;;20.03;8.90;;;;;;;;;;5015686;28;20847;-77
2022/03/08 04:06:40;;;;;;;18.67;8.27;;;;;;;;;;5010653;28;20466;-76
2022/03/08 04:09:07;;;;;;;27.03;8.87;;;;;;;;;;5007096;28;20498;-78
2022/03/08 04:11:34;;;;;;;27.17;9.13;;;;;;;;;;4993637;28;20460;-76
2022/03/08 04:14:02;;;;;;;22.00;8.37;;;;;;;;;;4994605;28;20481;-77
2022/03/08 04:16:30;;;;;;;21.03;8.90;;;;;;;;;;5000687;28;20447;-77
2022/03/08 04:18:57;;;;;;;24.40;8.73;;;;;;;;;;4999493;28;20472;-78
2022/03/08 04:21:24;;;;;;;22.03;8.80;;;;;;;;;;4994152;28;20456;-74
2022/03/08 04:23:53;;;;;;;26.00;8.63;;;;;;;;;;4995491;28;20593;-77
2022/03/08 04:26:20;;;;;;;23.60;9.03;;;;;;;;;;4994365;28;20462;-77
2022/03/08 04:28:47;;;;;;;21.73;8.83;;;;;;;;;;4996422;28;20550;-79
2022/03/08 04:31:14;;;;;;;22.73;8.53;;;;;;;;;;4997633;28;20447;-77
2022/03/08 04:33:41;;;;;;;23.40;8.23;;;;;;;;;;4995178;28;21013;-79
2022/03/08 04:36:08;;;;;;;19.87;8.73;;;;;;;;;;4996269;28;20467;-77
2022/03/08 04:38:36;;;;;;;22.73;9.43;;;;;;;;;;4997040;28;20479;-78
2022/03/08 04:41:05;;;;;;;21.57;8.53;;;;;;;;;;4999166;28;20849;-76
2022/03/08 04:43:33;;;;;;;22.40;8.70;;;;;;;;;;4997899;28;20485;-77
2022/03/08 04:46:01;;;;;;;23.40;9.30;;;;;;;;;;5001399;28;20471;-79
2022/03/08 04:48:29;;;;;;;25.80;8.77;;;;;;;;;;4997950;28;20567;-76
2022/03/08 04:50:56;;;;;;;20.50;8.07;;;;;;;;;;4995498;28;20550;-78
2022/03/08 04:53:23;;;;;;;19.67;8.27;;;;;;;;;;4996577;28;20483;-77
2022/03/08 04:55:50;;;;;;;24.27;8.60;;;;;;;;;;4998880;28;20507;-76
2022/03/08 04:58:19;;;;;;;23.20;8.63;;;;;;;;;;4997862;28;20558;-78
2022/03/08 05:00:46;;;;;;;22.43;9.10;;;;;;;;;;4998088;28;20525;-77
2022/03/08 05:03:13;;;;;;;18.63;8.30;;;;;;;;;;4995431;28;20527;-77
2022/03/08 05:05:40;;;;;;;25.50;8.53;;;;;;;;;;4996618;28;20458;-79
2022/03/08 05:08:07;;;;;;;31.37;9.93;;;;;;;;;;5000075;28;20459;-77
2022/03/08 05:10:35;;;;;;;42.23;13.80;;;;;;;;;;4997781;28;20831;-78
2022/03/08 05:13:03;;;;;;;42.67;11.83;;;;;;;;;;5000441;28;20926;-77
2022/03/08 05:15:32;;;;;;;35.23;11.13;;;;;;;;;;5000242;28;20470;-77
2022/03/08 05:17:59;;;;;;;37.30;11.50;;;;;;;;;;4998134;28;20490;-77
2022/03/08 05:20:26;;;;;;;28.73;10.27;;;;;;;;;;4999055;28;20585;-77
2022/03/08 05:22:54;;;;;;;32.37;10.53;;;;;;;;;;5002551;28;20912;-77
2022/03/08 05:25:21;;;;;;;24.57;9.53;;;;;;;;;;4998031;28;20958;-77
2022/03/08 05:27:48;;;;;;;34.27;10.03;;;;;;;;;;5001681;28;20835;-78
2022/03/08 05:30:16;;;;;;;31.33;10.10;;;;;;;;;;4998023;28;20472;-79
2022/03/08 05:32:44;;;;;;;33.50;10.40;;;;;;;;;;5001585;28;20495;-79
2022/03/08 05:35:12;;;;;;;33.50;12.03;;;;;;;;;;4995427;28;20901;-79
2022/03/08 05:37:39;;;;;;;37.17;13.60;;;;;;;;;;4994730;28;20978;-77
2022/03/08 05:40:07;;;;;;;48.20;15.23;;;;;;;;;;4996302;28;20606;-77
2022/03/08 05:42:34;;;;;;;52.37;14.53;;;;;;;;;;4998541;28;20535;-78
2022/03/08 05:45:01;;;;;;;50.13;14.87;;;;;;;;;;5000837;28;20949;-78
2022/03/08 05:47:28;;;;;;;50.20;14.93;;;;;;;;;;4995623;28;20464;-78
2022/03/08 05:49:57;;;;;;;52.90;16.20;;;;;;;;;;5000779;28;21032;-78
2022/03/08 05:52:24;;;;;;;43.17;15.30;;;;;;;;;;4998594;28;20487;-78
2022/03/08 05:54:51;;;;;;;41.90;13.97;;;;;;;;;;4997736;28;20549;-77
2022/03/08 05:57:18;;;;;;;43.37;13.30;;;;;;;;;;5000850;28;21238;-79
2022/03/08 05:59:49;;;;;;;51.70;14.30;;;;;;;;;;4995805;28;20482;-77
2022/03/08 06:02:16;;;;;;;35.90;12.20;;;;;;;;;;4997540;28;20467;-78
2022/03/08 06:04:43;;;;;;;28.60;10.33;;;;;;;;;;4999571;28;20464;-77
2022/03/08 06:07:12;;;;;;;30.87;10.17;;;;;;;;;;4997867;28;20470;-77
2022/03/08 06:09:39;;;;;;;27.07;10.37;;;;;;;;;;5002642;28;20487;-77
2022/03/08 06:12:07;;;;;;;34.27;11.03;;;;;;;;;;5004080;28;20459;-79
2022/03/08 06:14:34;;;;;;;28.17;10.87;;;;;;;;;;4999828;28;20478;-78
2022/03/08 06:17:01;;;;;;;39.17;12.40;;;;;;;;;;5004001;28;20463;-78
2022/03/08 06:19:29;;;;;;;26.03;10.57;;;;;;;;;;5001418;28;20483;-79
2022/03/08 06:21:56;;;;;;;33.23;9.90;;;;;;;;;;4997019;28;20932;-76
2022/03/08 06:24:24;;;;;;;36.50;11.87;;;;;;;;;;4998079;28;20487;-78
2022/03/08 06:26:51;;;;;;;25.67;9.53;;;;;;;;;;4995409;28;20493;-77
2022/03/08 06:29:19;;;;;;;33.07;11.03;;;;;;;;;;4996605;28;20951;-77
2022/03/08 06:31:46;;;;;;;32.43;11.27;;;;;;;;;;4992969;28;21338;-78
2022/03/08 06:34:13;;;;;;;26.40;9.90;;;;;;;;;;4995962;28;20493;-77
2022/03/08 06:36:41;;;;;;;29.97;10.53;;;;;;;;;;4995678;28;20451;-79
2022/03/08 06:39:08;;;;;;;26.37;9.83;;;;;;;;;;4997627;28;20510;-78
2022/03/08 06:41:37;;;;;;;25.00;10.10;;;;;;;;;;4996789;28;20846;-79
2022/03/08 06:44:04;;;;;;;22.73;9.43;;;;;;;;;;4994686;28;20487;-78
2022/03/08 06:46:31;;;;;;;36.47;10.53;;;;;;;;;;4996905;28;20647;-77
2022/03/08 06:48:59;;;;;;;33.17;10.23;;;;;;;;;;4992830;28;20543;-77
2022/03/08 06:51:26;;;;;;;31.23;10.67;;;;;;;;;;4992792;28;20554;-78
2022/03/08 06:53:53;;;;;;;29.93;10.93;;;;;;;;;;4995390;28;20489;-77
2022/03/08 06:56:20;;;;;;;28.47;10.77;;;;;;;;;;4994246;28;20460;-78
2022/03/08 06:58:49;;;;;;;41.73;11.73;;;;;;;;;;4995663;28;20475;-77
2022/03/08 07:01:17;;;;;;;30.77;10.67;;;;;;;;;;4998928;28;20484;-77
2022/03/08 07:03:44;;;;;;;33.93;10.70;;;;;;;;;;4997807;28;20492;-77
2022/03/08 07:06:11;;;;;;;33.90;10.73;;;;;;;;;;4995468;28;20464;-78
2022/03/08 07:08:38;;;;;;;31.57;10.83;;;;;;;;;;4997784;28;20469;-78
2022/03/08 07:11:09;;;;;;;28.03;10.37;;;;;;;;;;4995813;28;20463;-78
2022/03/08 07:13:36;;;;;;;29.23;10.47;;;;;;;;;;4996983;28;21025;-78
2022/03/08 07:16:07;;;;;;;31.17;10.83;;;;;;;;;;4995226;28;20919;-77
2022/03/08 07:18:34;;;;;;;33.83;12.20;;;;;;;;;;4997015;28;20482;-78
2022/03/08 07:21:03;;;;;;;32.70;11.47;;;;;;;;;;4996883;28;20574;-77
2022/03/08 07:23:30;;;;;;;24.63;9.80;;;;;;;;;;4995705;28;20851;-77
2022/03/08 07:25:58;;;;;;;34.10;13.70;;;;;;;;;;4996465;28;20473;-77
2022/03/08 07:28:25;;;;;;;30.13;12.03;;;;;;;;;;4996964;28;21576;-78
2022/03/08 07:30:54;;;;;;;26.73;11.07;;;;;;;;;;4997128;28;21310;-77
2022/03/08 07:33:23;;;;;;;31.27;10.77;;;;;;;;;;5001604;28;20483;-77
2022/03/08 07:35:50;;;;;;;25.17;9.77;;;;;;;;;;4999070;28;20566;-78
2022/03/08 07:38:17;;;;;;;24.93;10.33;;;;;;;;;;5000334;28;20467;-77
2022/03/08 07:40:44;;;;;;;25.23;10.77;;;;;;;;;;4993599;28;20505;-77
2022/03/08 07:43:12;;;;;;;26.17;11.03;;;;;;;;;;4997884;28;20484;-77
2022/03/08 07:45:39;;;;;;;31.73;12.53;;;;;;;;;;5007047;28;20535;-77
2022/03/08 07:48:06;;;;;;;21.80;9.73;;;;;;;;;;4996039;28;20898;-78
2022/03/08 07:50:36;;;;;;;27.80;10.27;;;;;;;;;;4995140;28;20193;-77
2022/03/08 07:53:04;;;;;;;17.53;8.80;;;;;;;;;;4992862;28;20224;-78
2022/03/08 07:55:31;;;;;;;14.43;8.63;;;;;;;;;;4996116;28;20205;-79
2022/03/08 07:57:59;;;;;;;14.47;7.57;;;;;;;;;;4993776;28;20240;-77
2022/03/08 08:00:26;;;;;;;16.20;6.67;;;;;;;;;;4994329;28;20231;-77
2022/03/08 08:02:53;;;;;;;13.83;7.37;;;;;;;;;;4995187;28;20314;-76
2022/03/08 08:05:21;;;;;;;13.93;7.13;;;;;;;;;;4991232;28;20272;-77
2022/03/08 08:07:50;;;;;;;13.40;7.30;;;;;;;;;;4994375;28;20216;-78
2022/03/08 08:10:17;;;;;;;18.37;8.33;;;;;;;;;;4994764;28;20200;-77
2022/03/08 08:12:45;;;;;;;17.57;8.70;;;;;;;;;;4997033;28;20220;-79
2022/03/08 08:15:13;;;;;;;16.43;8.10;;;;;;;;;;4997338;28;20227;-77
2022/03/08 08:17:40;;;;;;;22.40;9.13;;;;;;;;;;4998338;28;20299;-77
2022/03/08 08:20:21;;;;;;;16.10;9.00;;;;;;;;;;5000727;28;20247;-77
2022/03/08 08:22:49;;;;;;;18.27;9.47;;;;;;;;;;5019853;28;20255;-80
2022/03/08 08:25:17;;;;;;;20.27;9.53;;;;;;;;;;5006586;28;20280;-78
2022/03/08 08:27:44;;;;;;;19.37;10.07;;;;;;;;;;5006691;28;20218;-78
2022/03/08 08:30:12;;;;;;;23.20;9.20;;;;;;;;;;5001559;28;20200;-78
2022/03/08 08:32:39;;;;;;;22.40;9.00;;;;;;;;;;5001476;28;20304;-78
2022/03/08 08:35:07;;;;;;;18.33;9.67;;;;;;;;;;5003882;28;20304;-79
2022/03/08 08:37:34;;;;;;;20.30;9.57;;;;;;;;;;5000899;28;20205;-78
2022/03/08 08:40:02;;;;;;;16.43;9.27;;;;;;;;;;5003490;28;20596;-79
2022/03/08 08:42:29;;;;;;;12.77;8.03;;;;;;;;;;5002185;28;20599;-79
2022/03/08 08:44:57;;;;;;;14.70;8.40;;;;;;;;;;5001318;28;20219;-79
2022/03/08 08:47:24;;;;;;;16.83;8.10;;;;;;;;;;5001796;28;20196;-78
2022/03/08 08:49:51;;;;;;;18.00;8.23;;;;;;;;;;5000942;28;20324;-79
2022/03/08 08:52:18;;;;;;;16.37;7.97;;;;;;;;;;4997416;28;20299;-79
2022/03/08 08:54:47;;;;;;;14.53;7.60;;;;;;;;;;5001609;28;20343;-79
2022/03/08 08:57:16;;;;;;;12.37;7.13;;;;;;;;;;5001682;28;20201;-79
2022/03/08 08:59:43;;;;;;;18.93;7.70;;;;;;;;;;4998657;28;20225;-78
2022/03/08 09:02:10;;;;;;;21.37;7.70;;;;;;;;;;4997157;28;20200;-80
2022/03/08 09:04:37;;;;;;;13.23;7.80;;;;;;;;;;5002895;28;20564;-78
2022/03/08 09:07:05;;;;;;;13.13;7.23;;;;;;;;;;5003118;28;20210;-78
2022/03/08 09:09:33;;;;;;;15.87;7.90;;;;;;;;;;5001100;28;20209;-77
2022/03/08 09:12:00;;;;;;;14.00;7.50;;;;;;;;;;5000403;28;20611;-78
2022/03/08 09:14:28;;;;;;;17.30;8.10;;;;;;;;;;4998138;28;20595;-78
2022/03/08 09:16:57;;;;;;;13.33;8.13;;;;;;;;;;4993197;28;20214;-78
2022/03/08 09:19:24;;;;;;;15.60;7.20;;;;;;;;;;4997917;28;20612;-77
2022/03/08 09:21:52;;;;;;;15.40;7.43;;;;;;;;;;4999926;28;20236;-78
2022/03/08 09:24:19;;;;;;;18.70;7.13;;;;;;;;;;5005225;28;20319;-77
2022/03/08 09:26:46;;;;;;;17.83;6.63;;;;;;;;;;4998038;28;20263;-78
2022/03/08 09:29:13;;;;;;;12.60;6.63;;;;;;;;;;5000881;28;20802;-77
2022/03/08 09:31:41;;;;;;;12.83;6.40;;;;;;;;;;5002232;28;20204;-78
2022/03/08 09:34:09;;;;;;;24.43;7.17;;;;;;;;;;4999683;28;20224;-77
2022/03/08 09:36:37;;;;;;;15.40;7.43;;;;;;;;;;4998241;28;20232;-77
2022/03/08 09:39:05;;;;;;;19.60;7.50;;;;;;;;;;4998939;28;20208;-77
2022/03/08 09:41:32;;;;;;;15.60;7.00;;;;;;;;;;5002489;28;20265;-78
2022/03/08 09:44:00;;;;;;;19.90;7.00;;;;;;;;;;4997728;28;20224;-77
2022/03/08 09:46:27;;;;;;;14.70;7.23;;;;;;;;;;5006286;28;20216;-76
2022/03/08 09:48:56;;;;;;;14.87;7.23;;;;;;;;;;5003364;28;20207;-78
2022/03/08 09:51:23;;;;;;;16.33;6.40;;;;;;;;;;5002951;28;20832;-77
2022/03/08 09:53:53;;;;;;;11.07;5.80;;;;;;;;;;5002420;28;20283;-78
2022/03/08 09:56:23;;;;;;;12.37;5.90;;;;;;;;;;5006980;28;20208;-77
2022/03/08 09:58:52;;;;;;;9.83;4.87;;;;;;;;;;5000856;28;20210;-78
2022/03/08 10:01:20;;;;;;;9.43;4.80;;;;;;;;;;5005387;28;20212;-78
2022/03/08 10:03:50;;;;;;;10.00;4.97;;;;;;;;;;5005480;28;20231;-78
2022/03/08 10:06:19;;;;;;;9.00;4.80;;;;;;;;;;5006390;28;20237;-78
2022/03/08 10:08:46;;;;;;;15.70;4.70;;;;;;;;;;5007749;28;20202;-79
2022/03/08 10:11:14;;;;;;;8.20;4.83;;;;;;;;;;5003557;28;20265;-78
2022/03/08 10:13:45;;;;;;;8.27;4.53;;;;;;;;;;5007950;28;20232;-77
2022/03/08 10:16:14;;;;;;;11.27;5.63;;;;;;;;;;5000521;28;20272;-77
2022/03/08 10:18:42;;;;;;;11.67;5.37;;;;;;;;;;5005212;28;20223;-78
2022/03/08 10:21:27;;;;;;;11.63;4.43;;;;;;;;;;5000708;28;20221;-78
2022/03/08 10:23:55;;;;;;;12.40;5.70;;;;;;;;;;5002769;28;20267;-77
2022/03/08 10:26:22;;;;;;;9.87;4.90;;;;;;;;;;5006411;28;20212;-78
2022/03/08 10:28:50;;;;;;;9.03;4.97;;;;;;;;;;5003148;28;20726;-77
2022/03/08 10:31:18;;;;;;;10.23;4.50;;;;;;;;;;5005791;28;20268;-77
2022/03/08 10:33:45;;;;;;;9.37;4.90;;;;;;;;;;5028181;22;20246;-84
2022/03/08 10:36:14;;;;;;;9.23;4.50;;;;;;;;;;5009712;22;20339;-77
2022/03/08 10:38:42;;;;;;;9.73;4.77;;;;;;;;;;5002939;28;20208;-77
2022/03/08 10:41:19;;;;;;;8.43;4.73;;;;;;;;;;4998246;28;20618;-77
2022/03/08 10:43:50;;;;;;;12.03;5.23;;;;;;;;;;5011608;28;20899;-76
2022/03/08 10:46:18;;;;;;;9.23;4.63;;;;;;;;;;5009413;28;20208;-76
2022/03/08 10:48:47;;;;;;;9.90;5.43;;;;;;;;;;5015375;28;20217;-77
2022/03/08 10:51:14;;;;;;;13.30;5.77;;;;;;;;;;5016720;28;20286;-77
2022/03/08 10:53:43;;;;;;;12.97;5.33;;;;;;;;;;5019644;28;20474;-77
2022/03/08 10:56:11;;;;;;;10.77;6.33;;;;;;;;;;5015376;28;20222;-76
2022/03/08 10:58:49;;;;;;;14.30;5.87;;;;;;;;;;5014024;28;20208;-77
2022/03/08 11:01:16;;;;;;;13.13;5.30;;;;;;;;;;5013828;28;20236;-77
2022/03/08 11:03:56;;;;;;;12.23;6.03;;;;;;;;;;5014078;28;20254;-77
2022/03/08 11:06:23;;;;;;;12.07;5.77;;;;;;;;;;5015497;28;21854;-78
2022/03/08 11:08:54;;;;;;;11.93;5.10;;;;;;;;;;5016761;28;20283;-78
2022/03/08 11:11:22;;;;;;;7.17;3.87;;;;;;;;;;5016491;28;20689;-77
2022/03/08 11:13:51;;;;;;;11.00;5.07;;;;;;;;;;5019924;28;20765;-78
2022/03/08 11:16:19;;;;;;;9.97;5.00;;;;;;;;;;5015005;28;20303;-78
2022/03/08 11:18:49;;;;;;;9.37;4.97;;;;;;;;;;5016777;28;20617;-77
2022/03/08 11:21:17;;;;;;;11.80;4.67;;;;;;;;;;5017901;28;20223;-76
2022/03/08 11:23:44;;;;;;;10.00;5.17;;;;;;;;;;5020488;28;20222;-78
2022/03/08 11:26:13;;;;;;;8.63;4.73;;;;;;;;;;5015795;28;20839;-78
2022/03/08 11:28:45;;;;;;;10.50;4.70;;;;;;;;;;5015418;28;20200;-76
2022/03/08 11:31:13;;;;;;;11.43;5.00;;;;;;;;;;5019040;28;20197;-79
2022/03/08 11:33:43;;;;;;;7.67;5.00;;;;;;;;;;5019922;28;20255;-77
2022/03/08 11:36:17;;;;;;;8.23;4.63;;;;;;;;;;5017542;28;20671;-77
2022/03/08 11:38:44;;;;;;;9.33;4.73;;;;;;;;;;5017993;28;20314;-76
2022/03/08 11:41:25;;;;;;;10.03;5.10;;;;;;;;;;5016233;28;20239;-76
2022/03/08 11:43:52;;;;;;;9.97;5.13;;;;;;;;;;5017104;28;20688;-78
2022/03/08 11:46:21;;;;;;;15.60;4.80;;;;;;;;;;5012033;28;20223;-77
2022/03/08 11:48:52;;;;;;;8.37;4.60;;;;;;;;;;5014584;28;20573;-78
2022/03/08 11:51:19;;;;;;;13.30;4.57;;;;;;;;;;5018918;28;20287;-78
2022/03/08 11:53:47;;;;;;;8.37;4.43;;;;;;;;;;5016519;28;20296;-76
2022/03/08 11:56:18;;;;;;;10.27;4.83;;;;;;;;;;5013576;28;20884;-76
2022/03/08 11:58:47;;;;;;;9.10;4.57;;;;;;;;;;5020259;28;20236;-75
2022/03/08 12:01:26;;;;;;;10.47;4.57;;;;;;;;;;5013168;28;20423;-77
2022/03/08 12:03:57;;;;;;;8.33;5.00;;;;;;;;;;5017323;28;20595;-78
2022/03/08 12:06:31;;;;;;;11.70;5.90;;;;;;;;;;5013839;28;20204;-77
2022/03/08 12:09:07;;;;;;;9.43;4.93;;;;;;;;;;5021724;28;20203;-77
2022/03/08 12:11:40;;;;;;;10.60;4.97;;;;;;;;;;5026261;28;20644;-78
2022/03/08 12:14:11;;;;;;;12.00;5.40;;;;;;;;;;5015340;28;20232;-77
2022/03/08 12:16:40;;;;;;;9.40;5.03;;;;;;;;;;5014954;28;20288;-77
2022/03/08 12:19:09;;;;;;;13.73;4.90;;;;;;;;;;5015737;28;20290;-79
2022/03/08 12:21:41;;;;;;;15.23;5.47;;;;;;;;;;5018656;28;20326;-77
2022/03/08 12:24:12;;;;;;;15.03;5.80;;;;;;;;;;5022451;28;20374;-78
2022/03/08 12:26:42;;;;;;;11.63;5.60;;;;;;;;;;5014211;28;20753;-78
2022/03/08 12:29:13;;;;;;;9.47;5.43;;;;;;;;;;5017166;28;20204;-76
2022/03/08 12:32:01;;;;;;;13.97;5.10;;;;;;;;;;5018054;28;20210;-79
2022/03/08 12:34:39;;;;;;;11.10;5.40;;;;;;;;;;5019325;28;20215;-79
2022/03/08 12:37:07;;;;;;;9.13;5.43;;;;;;;;;;5016947;28;20207;-78
2022/03/08 12:39:51;;;;;;;11.37;5.00;;;;;;;;;;5021932;28;20239;-80
2022/03/08 12:42:21;;;;;;;8.87;4.97;;;;;;;;;;5023328;28;20315;-78
2022/03/08 12:44:56;;;;;;;10.27;5.33;;;;;;;;;;5018967;28;20210;-78
2022/03/08 12:47:23;;;;;;;9.87;5.43;;;;;;;;;;5021318;28;20779;-79
2022/03/08 12:49:50;;;;;;;14.93;5.33;;;;;;;;;;5020647;28;20268;-79
2022/03/08 12:52:21;;;;;;;9.90;5.20;;;;;;;;;;5018759;28;20200;-77
2022/03/08 12:54:48;;;;;;;8.70;5.17;;;;;;;;;;5015593;28;20214;-79
2022/03/08 12:57:16;;;;;;;10.67;5.50;;;;;;;;;;5013709;28;20266;-80
2022/03/08 12:59:49;;;;;;;12.43;6.13;;;;;;;;;;5011998;28;20197;-79
2022/03/08 13:02:16;;;;;;;10.87;5.50;;;;;;;;;;5013314;28;20220;-77
2022/03/08 13:04:44;;;;;;;14.03;5.37;;;;;;;;;;5017046;28;20736;-79
2022/03/08 13:07:12;;;;;;;10.73;5.60;;;;;;;;;;5019771;28;20200;-80
2022/03/08 13:09:49;;;;;;;11.57;5.70;;;;;;;;;;5022842;28;20616;-79
2022/03/08 13:12:20;;;;;;;10.17;5.87;;;;;;;;;;5021472;28;20868;-79
2022/03/08 13:15:02;;;;;;;10.20;5.33;;;;;;;;;;5023796;28;20755;-79
2022/03/08 13:17:31;;;;;;;12.93;5.80;;;;;;;;;;5022992;28;20226;-78
2022/03/08 13:19:58;;;;;;;10.73;5.67;;;;;;;;;;5020062;28;20591;-80
2022/03/08 13:22:25;;;;;;;11.73;5.87;;;;;;;;;;5023579;28;20334;-78
2022/03/08 13:25:08;;;;;;;11.33;5.37;;;;;;;;;;5019261;28;20303;-79
2022/03/08 13:27:58;;;;;;;11.60;5.83;;;;;;;;;;5016361;28;20314;-78
2022/03/08 13:30:26;;;;;;;16.60;6.10;;;;;;;;;;5021707;28;20200;-78
2022/03/08 13:33:10;;;;;;;12.70;5.60;;;;;;;;;;5020609;28;20230;-80
2022/03/08 13:35:38;;;;;;;12.10;5.87;;;;;;;;;;5018356;28;20211;-79
2022/03/08 13:38:05;;;;;;;10.33;5.60;;;;;;;;;;5019127;28;20953;-79
2022/03/08 13:40:34;;;;;;;11.93;5.43;;;;;;;;;;5014969;28;20748;-76
2022/03/08 13:43:01;;;;;;;10.73;5.33;;;;;;;;;;5016022;28;20236;-79
2022/03/08 13:45:29;;;;;;;11.57;6.00;;;;;;;;;;5013080;28;20263;-80
2022/03/08 13:47:57;;;;;;;9.83;5.40;;;;;;;;;;5018964;28;20231;-78
2022/03/08 13:50:26;;;;;;;10.80;5.97;;;;;;;;;;5007861;28;20216;-76
2022/03/08 13:52:53;;;;;;;10.50;5.47;;;;;;;;;;5017968;28;20228;-79
2022/03/08 13:55:21;;;;;;;15.30;5.27;;;;;;;;;;5019118;28;20238;-78
2022/03/08 13:57:55;;;;;;;8.70;4.80;;;;;;;;;;5011189;28;20455;-76
2022/03/08 14:00:22;;;;;;;10.03;5.03;;;;;;;;;;5008740;28;20226;-77
2022/03/08 14:02:55;;;;;;;8.63;4.93;;;;;;;;;;5015268;28;20242;-79
2022/03/08 14:05:22;;;;;;;8.67;4.93;;;;;;;;;;5014660;28;20215;-81
2022/03/08 14:08:01;;;;;;;10.93;5.13;;;;;;;;;;5013941;28;20294;-79
2022/03/08 14:10:29;;;;;;;7.50;4.60;;;;;;;;;;5017467;28;20238;-81
2022/03/08 14:12:56;;;;;;;11.07;5.13;;;;;;;;;;5021403;28;20257;-78
2022/03/08 14:15:26;;;;;;;8.17;4.57;;;;;;;;;;5020121;28;20204;-77
2022/03/08 14:18:06;;;;;;;12.03;4.87;;;;;;;;;;5020889;28;20236;-79
2022/03/08 14:20:37;;;;;;;9.33;4.10;;;;;;;;;;5022230;28;20263;-78
2022/03/08 14:23:07;;;;;;;9.67;4.60;;;;;;;;;;5023722;28;20236;-79
2022/03/08 14:25:38;;;;;;;7.33;4.40;;;;;;;;;;5021430;28;20588;-80
2022/03/08 14:28:06;;;;;;;7.17;4.17;;;;;;;;;;5020775;28;20775;-79
2022/03/08 14:30:33;;;;;;;9.63;4.77;;;;;;;;;;5020608;28;20197;-80
2022/03/08 14:33:05;;;;;;;10.37;4.50;;;;;;;;;;5017173;28;20220;-78
2022/03/08 14:35:32;;;;;;;8.27;4.40;;;;;;;;;;5020028;28;20220;-79